Time;durP1;ratioP1;P1;durP2;ratioP2;P2;SDS_P1;SDS_P2;PMS_P1;PMS_P2;Temp;Humidity;BMP_temperature;BMP_pressure;BME280_temperature;BME280_humidity;BME280_pressure;Samples;Min_cycle;Max_cycle;Signal;HPM_P1;HPM_P2
2021/06/12 00:00:25;;;;;;;4.50;4.10;;;;;;;21.09;61.27;96996.13;5033692;28;20273;-64
2021/06/12 00:02:51;;;;;;;4.22;3.83;;;;;;;21.08;61.36;97005.19;5032787;28;20443;-63
2021/06/12 00:05:16;;;;;;;5.00;4.30;;;;;;;21.06;61.39;97004.72;5033206;28;20273;-63
2021/06/12 00:07:42;;;;;;;6.70;4.20;;;;;;;21.07;61.67;97008.94;5033041;28;20187;-63
2021/06/12 00:10:21;;;;;;;4.30;3.78;;;;;;;21.03;61.72;97003.41;5033809;28;20306;-63
2021/06/12 00:12:48;;;;;;;4.32;4.03;;;;;;;20.88;62.47;97008.16;5032817;28;20229;-63
2021/06/12 00:15:15;;;;;;;3.92;3.63;;;;;;;20.81;62.62;97005.03;5032427;28;20190;-63
2021/06/12 00:17:41;;;;;;;4.65;4.28;;;;;;;20.90;62.24;97003.34;5032418;28;20198;-63
2021/06/12 00:20:10;;;;;;;3.97;3.67;;;;;;;20.80;62.56;97004.22;5033152;28;20197;-63
2021/06/12 00:22:35;;;;;;;4.03;3.72;;;;;;;20.84;62.59;97007.94;5033537;28;20272;-63
2021/06/12 00:25:01;;;;;;;4.50;4.10;;;;;;;20.71;62.78;97001.44;5032219;28;20249;-63
2021/06/12 00:27:26;;;;;;;4.53;4.13;;;;;;;20.68;62.87;97006.50;5033203;28;20683;-63
2021/06/12 00:29:52;;;;;;;4.45;4.05;;;;;;;20.61;63.23;97000.75;5032508;28;20191;-64
2021/06/12 00:32:17;;;;;;;4.32;3.92;;;;;;;20.81;62.61;97003.16;5032906;28;20179;-63
2021/06/12 00:34:43;;;;;;;4.50;4.15;;;;;;;20.68;62.71;96999.31;5032118;28;20215;-63
2021/06/12 00:37:09;;;;;;;4.60;4.20;;;;;;;20.69;62.31;96992.91;5032378;28;20198;-64
2021/06/12 00:39:34;;;;;;;4.93;4.25;;;;;;;20.45;63.05;96994.81;5032997;28;20274;-63
2021/06/12 00:41:59;;;;;;;4.50;4.10;;;;;;;20.52;62.66;96992.59;5031253;28;20434;-64
2021/06/12 00:44:25;;;;;;;4.50;4.10;;;;;;;20.56;62.63;96990.19;5032979;28;20206;-63
2021/06/12 00:46:50;;;;;;;4.72;4.25;;;;;;;20.40;63.34;96986.06;5014296;28;20708;-63
2021/06/12 00:49:16;;;;;;;4.50;4.10;;;;;;;20.34;64.15;96986.13;5015294;28;20186;-63
2021/06/12 00:51:41;;;;;;;4.47;4.07;;;;;;;20.20;64.90;96982.56;5032224;28;20187;-63
2021/06/12 00:54:07;;;;;;;4.60;4.20;;;;;;;20.21;64.95;96986.00;5032391;28;20201;-63
2021/06/12 00:56:32;;;;;;;4.43;4.10;;;;;;;20.09;65.41;96974.97;5032538;28;20211;-63
2021/06/12 00:58:58;;;;;;;4.43;3.90;;;;;;;20.14;65.23;96978.34;5031714;28;20197;-63
2021/06/12 01:01:23;;;;;;;5.13;4.63;;;;;;;20.09;65.21;96977.63;5031827;28;20183;-63
2021/06/12 01:03:49;;;;;;;5.20;4.63;;;;;;;19.98;65.67;96973.47;5031667;28;20201;-63
2021/06/12 01:06:17;;;;;;;5.45;4.95;;;;;;;20.08;65.15;96968.03;5014542;28;20190;-63
2021/06/12 01:08:43;;;;;;;5.82;5.15;;;;;;;20.16;64.96;96973.56;5031535;28;20197;-63
2021/06/12 01:11:10;;;;;;;4.55;4.15;;;;;;;20.05;65.71;96968.63;5032285;28;20187;-63
2021/06/12 01:14:13;;;;;;;6.38;4.15;;;;;;;20.07;65.43;96969.09;5014389;28;20281;-63
2021/06/12 01:17:02;;;;;;;5.18;4.72;;;;;;;19.89;65.83;96963.44;5032375;28;20656;-63
2021/06/12 01:19:47;;;;;;;4.80;4.40;;;;;;;19.81;66.01;96961.41;5014797;28;20588;-63
2021/06/12 01:22:21;;;;;;;4.88;4.40;;;;;;;19.70;66.74;96961.78;5031915;28;20179;-63
2021/06/12 01:24:55;;;;;;;6.70;4.65;;;;;;;19.70;66.81;96962.56;5031623;28;20179;-63
2021/06/12 01:27:23;;;;;;;4.65;4.25;;;;;;;19.67;66.99;96967.66;5032080;28;20186;-63
2021/06/12 01:30:23;;;;;;;7.40;5.07;;;;;;;19.64;67.43;96969.00;5013606;28;20248;-63
2021/06/12 01:33:00;;;;;;;5.07;4.68;;;;;;;19.49;67.94;96963.81;5026299;28;20207;-63
2021/06/12 01:35:34;;;;;;;5.55;4.35;;;;;;;19.45;68.10;96974.19;5029928;28;20521;-63
2021/06/12 01:38:00;;;;;;;5.10;4.60;;;;;;;19.48;68.28;96971.00;5031290;28;20553;-63
2021/06/12 01:40:31;;;;;;;5.22;4.82;;;;;;;19.43;68.60;96978.19;5032121;28;20190;-63
2021/06/12 01:42:58;;;;;;;6.25;4.95;;;;;;;19.35;68.98;96966.28;5031251;28;20182;-63
2021/06/12 01:45:25;;;;;;;5.43;4.57;;;;;;;19.30;69.25;96963.66;5030992;28;20194;-63
2021/06/12 01:47:52;;;;;;;5.53;5.03;;;;;;;19.38;69.10;96963.09;5030700;28;20201;-63
2021/06/12 01:50:20;;;;;;;4.88;4.47;;;;;;;19.35;69.34;96958.31;5031300;28;20194;-63
2021/06/12 01:52:47;;;;;;;5.35;4.85;;;;;;;19.25;69.62;96960.25;5029423;28;20182;-63
2021/06/12 01:55:15;;;;;;;8.25;4.80;;;;;;;19.37;69.39;96958.03;5031294;28;20608;-63
2021/06/12 01:57:45;;;;;;;5.03;4.63;;;;;;;19.17;69.99;96961.63;5031143;28;20218;-63
2021/06/12 02:00:12;;;;;;;5.13;4.65;;;;;;;19.14;70.27;96954.22;5031453;28;20240;-63
2021/06/12 02:02:42;;;;;;;5.47;4.85;;;;;;;19.20;70.03;96953.13;5031224;28;20327;-63
2021/06/12 02:05:12;;;;;;;5.40;4.90;;;;;;;19.17;70.17;96956.31;5031037;28;20198;-63
2021/06/12 02:07:39;;;;;;;5.68;5.05;;;;;;;19.17;70.36;96956.31;5031470;28;20202;-63
2021/06/12 02:10:06;;;;;;;6.65;5.13;;;;;;;19.07;70.67;96949.22;5030472;28;20265;-63
2021/06/12 02:12:34;;;;;;;4.90;4.50;;;;;;;19.09;70.74;96959.56;5031621;28;20183;-63
2021/06/12 02:15:01;;;;;;;5.13;4.72;;;;;;;18.99;71.18;96967.63;5012856;28;20311;-63
2021/06/12 02:17:30;;;;;;;5.20;4.72;;;;;;;19.00;71.12;96962.00;5030941;28;20252;-63
2021/06/12 02:19:55;;;;;;;5.88;5.30;;;;;;;18.98;71.40;96968.69;5030591;28;20194;-63
2021/06/12 02:22:21;;;;;;;5.25;4.75;;;;;;;19.05;71.21;96958.53;5013391;28;20194;-63
2021/06/12 02:24:47;;;;;;;5.75;5.15;;;;;;;19.18;70.68;96960.56;5030664;28;20274;-63
2021/06/12 02:27:15;;;;;;;5.90;5.40;;;;;;;19.04;71.22;96963.06;5031186;28;20701;-63
2021/06/12 02:29:42;;;;;;;6.13;5.53;;;;;;;18.82;72.01;96964.53;5030788;28;20266;-63
2021/06/12 02:32:11;;;;;;;5.82;5.22;;;;;;;18.79;72.28;96957.88;5029904;28;20182;-63
2021/06/12 02:34:37;;;;;;;5.55;5.05;;;;;;;18.77;72.47;96954.72;5030315;28;20246;-63
2021/06/12 02:37:07;;;;;;;6.07;5.47;;;;;;;18.80;72.44;96950.72;5029890;28;20256;-63
2021/06/12 02:39:34;;;;;;;5.40;4.90;;;;;;;18.77;72.58;96954.72;5031095;28;20193;-63
2021/06/12 02:42:00;;;;;;;5.63;5.13;;;;;;;18.73;72.49;96956.31;5030236;28;20218;-63
2021/06/12 02:44:26;;;;;;;5.30;4.90;;;;;;;18.72;72.44;96961.94;5023241;28;20183;-63
2021/06/12 02:46:56;;;;;;;5.85;5.30;;;;;;;18.92;71.68;96951.97;5012817;28;20212;-64
2021/06/12 02:49:27;;;;;;;5.47;4.97;;;;;;;18.81;72.18;96955.75;5030865;28;20182;-63
2021/06/12 02:51:58;;;;;;;5.55;5.10;;;;;;;18.77;72.34;96964.56;5030131;28;20174;-63
2021/06/12 02:54:25;;;;;;;5.78;5.28;;;;;;;18.69;72.71;96966.72;5030456;28;20523;-63
2021/06/12 02:56:53;;;;;;;6.50;5.90;;;;;;;18.63;73.05;96959.03;5030249;28;20275;-63
2021/06/12 02:59:21;;;;;;;5.82;5.32;;;;;;;18.72;72.83;96968.03;5030923;28;20187;-64
2021/06/12 03:01:48;;;;;;;5.90;5.40;;;;;;;18.68;72.77;96969.63;5029926;28;20553;-63
2021/06/12 03:04:16;;;;;;;5.97;5.38;;;;;;;18.65;73.02;96965.69;5032652;28;20195;-63
2021/06/12 03:06:44;;;;;;;6.95;5.40;;;;;;;18.57;73.29;96970.75;5034616;28;20279;-63
2021/06/12 03:09:13;;;;;;;5.68;5.15;;;;;;;18.54;73.58;96972.09;5034249;28;20183;-63
2021/06/12 03:11:39;;;;;;;6.80;6.10;;;;;;;18.67;73.27;96971.50;5034743;28;20269;-63
2021/06/12 03:14:05;;;;;;;7.57;5.90;;;;;;;18.58;73.51;96983.75;5033956;28;20182;-63
2021/06/12 03:16:31;;;;;;;7.22;6.07;;;;;;;18.55;73.89;96983.53;5034754;28;20220;-63
2021/06/12 03:18:58;;;;;;;6.10;5.50;;;;;;;18.51;74.21;96988.53;5015669;28;20538;-63
2021/06/12 03:21:26;;;;;;;5.68;5.18;;;;;;;18.46;74.58;96991.19;5034420;28;20205;-63
2021/06/12 03:23:52;;;;;;;7.32;6.25;;;;;;;18.50;74.51;96978.97;5033092;28;20225;-63
2021/06/12 03:26:20;;;;;;;6.35;5.78;;;;;;;18.48;74.62;96981.13;5034385;28;20218;-63
2021/06/12 03:28:46;;;;;;;6.38;5.78;;;;;;;18.46;75.40;96985.91;5033749;28;20194;-63
2021/06/12 03:31:12;;;;;;;6.53;6.03;;;;;;;18.34;76.37;96979.28;5034060;28;20543;-63
2021/06/12 03:33:37;;;;;;;7.00;6.35;;;;;;;18.21;76.95;96984.13;5033801;28;20368;-63
2021/06/12 03:36:04;;;;;;;6.90;6.10;;;;;;;18.16;76.94;96980.72;5031757;28;20218;-63
2021/06/12 03:38:30;;;;;;;7.53;6.70;;;;;;;18.15;77.25;96981.75;5032755;28;20198;-63
2021/06/12 03:40:57;;;;;;;6.50;5.90;;;;;;;18.03;77.77;96982.06;5031733;28;20603;-63
2021/06/12 03:43:24;;;;;;;6.35;5.75;;;;;;;18.02;77.70;96975.16;5032951;28;20194;-63
2021/06/12 03:45:54;;;;;;;6.57;5.97;;;;;;;18.10;77.66;96974.63;5031561;28;20190;-63
2021/06/12 03:48:22;;;;;;;7.65;5.80;;;;;;;18.16;77.26;96978.84;5032980;28;20628;-63
2021/06/12 03:50:50;;;;;;;6.78;6.18;;;;;;;18.22;77.19;96985.69;5031918;28;20631;-63
2021/06/12 03:53:16;;;;;;;7.20;6.47;;;;;;;18.40;76.65;96986.97;5032332;28;20194;-63
2021/06/12 03:55:42;;;;;;;7.55;6.13;;;;;;;18.40;76.72;96986.19;5032349;28;20205;-63
2021/06/12 03:58:07;;;;;;;7.10;6.40;;;;;;;18.36;77.01;96988.59;5031986;28;20198;-63
2021/06/12 04:00:34;;;;;;;6.95;6.25;;;;;;;18.35;76.92;96987.00;5032696;28;20175;-63
2021/06/12 04:02:59;;;;;;;7.25;6.55;;;;;;;18.36;76.79;96985.16;5031970;28;20253;-63
2021/06/12 04:05:25;;;;;;;6.85;6.20;;;;;;;18.43;76.68;96998.94;5031670;28;20187;-63
2021/06/12 04:07:51;;;;;;;6.68;5.97;;;;;;;18.38;76.62;96999.75;5013726;28;20268;-63
2021/06/12 04:10:16;;;;;;;7.03;6.32;;;;;;;18.48;76.49;96996.25;5015204;28;20237;-63
2021/06/12 04:12:41;;;;;;;6.93;6.32;;;;;;;18.44;76.65;96995.22;5033007;28;20198;-63
2021/06/12 04:15:07;;;;;;;6.93;6.32;;;;;;;18.38;76.67;96994.44;5030631;28;20225;-63
2021/06/12 04:17:33;;;;;;;6.60;6.00;;;;;;;18.39;76.89;96990.69;5032473;28;20202;-63
2021/06/12 04:19:59;;;;;;;6.18;5.57;;;;;;;18.43;76.47;96991.75;5013773;28;20221;-63
2021/06/12 04:22:25;;;;;;;6.53;5.80;;;;;;;18.45;76.29;96997.56;5032308;28;20187;-63
2021/06/12 04:24:50;;;;;;;7.38;6.35;;;;;;;18.50;75.89;96994.91;5031418;28;20190;-63
2021/06/12 04:27:16;;;;;;;7.82;5.82;;;;;;;18.55;75.68;96994.94;5031831;28;20636;-63
2021/06/12 04:29:41;;;;;;;6.28;5.75;;;;;;;18.69;75.43;96993.28;5032316;28;20199;-63
2021/06/12 04:32:07;;;;;;;6.40;5.80;;;;;;;18.69;75.19;96989.81;5031319;28;20202;-63
2021/06/12 04:34:33;;;;;;;5.82;5.32;;;;;;;18.78;75.32;96990.06;5028194;28;111295;-63
2021/06/12 04:36:59;;;;;;;6.65;5.95;;;;;;;18.79;74.74;96989.75;5031592;28;20242;-63
2021/06/12 04:39:26;;;;;;;6.65;6.05;;;;;;;18.95;73.80;96982.50;5015226;28;20197;-63
2021/06/12 04:41:51;;;;;;;6.50;5.90;;;;;;;19.14;72.96;96990.63;5031829;28;20273;-62
2021/06/12 04:44:16;;;;;;;7.40;5.90;;;;;;;19.24;72.79;97003.84;5032516;28;20274;-63
2021/06/12 04:46:43;;;;;;;6.70;5.80;;;;;;;19.20;73.10;97008.13;5032531;28;20209;-62
2021/06/12 04:49:09;;;;;;;5.57;5.18;;;;;;;19.11;73.21;97008.69;5031339;28;20791;-63
2021/06/12 04:51:34;;;;;;;5.68;5.18;;;;;;;19.16;73.50;97013.22;5032448;28;20193;-62
2021/06/12 04:54:00;;;;;;;6.32;5.75;;;;;;;19.19;73.58;97012.66;5031204;28;20539;-63
2021/06/12 04:56:26;;;;;;;6.35;5.75;;;;;;;19.23;73.45;97011.03;5032365;28;20345;-63
2021/06/12 04:58:51;;;;;;;6.80;6.20;;;;;;;19.21;73.88;97013.19;5031969;28;20190;-64
2021/06/12 05:01:17;;;;;;;10.05;6.28;;;;;;;19.47;72.90;96997.84;5032249;28;20182;-64
2021/06/12 05:03:42;;;;;;;7.07;6.38;;;;;;;19.51;72.45;96993.56;5032648;28;20297;-64
2021/06/12 05:06:08;;;;;;;6.82;6.00;;;;;;;19.74;72.00;96995.50;5013649;28;20270;-64
2021/06/12 05:08:33;;;;;;;7.65;5.70;;;;;;;20.13;70.95;97000.72;5032286;28;20197;-63
2021/06/12 05:10:58;;;;;;;6.30;5.72;;;;;;;20.48;68.86;97012.09;5031610;28;20268;-64
2021/06/12 05:13:24;;;;;;;6.00;5.50;;;;;;;20.53;68.68;97017.34;5032167;28;20272;-64
2021/06/12 05:15:49;;;;;;;6.60;6.00;;;;;;;20.98;67.48;97014.13;5031860;28;20631;-64
2021/06/12 05:18:16;;;;;;;7.07;6.38;;;;;;;21.24;66.28;97011.13;5014404;28;20245;-65
2021/06/12 05:20:42;;;;;;;6.95;6.25;;;;;;;21.41;65.58;97009.53;5032516;28;20194;-63
2021/06/12 05:23:07;;;;;;;7.18;6.47;;;;;;;21.71;65.07;97010.94;5031268;28;20203;-63
2021/06/12 05:25:34;;;;;;;7.15;5.32;;;;;;;21.87;62.98;97009.59;5031541;28;20677;-65
2021/06/12 05:28:00;;;;;;;5.90;5.35;;;;;;;22.05;62.70;97016.00;5031700;28;20194;-65
2021/06/12 05:30:25;;;;;;;6.07;5.40;;;;;;;22.09;62.57;97011.63;5032291;28;20179;-65
2021/06/12 05:32:52;;;;;;;6.03;5.43;;;;;;;22.22;61.13;97012.75;5031524;28;20605;-65
2021/06/12 05:35:18;;;;;;;5.82;5.32;;;;;;;22.32;60.90;97013.34;5031314;28;20226;-65
2021/06/12 05:37:43;;;;;;;5.78;4.80;;;;;;;22.46;60.60;97004.56;5012921;28;20209;-65
2021/06/12 05:40:10;;;;;;;5.55;5.05;;;;;;;22.58;59.98;97005.63;5030967;28;20667;-64
2021/06/12 05:42:36;;;;;;;5.28;4.88;;;;;;;22.47;59.96;97006.91;5031932;28;20185;-65
2021/06/12 05:45:04;;;;;;;6.65;4.95;;;;;;;22.43;60.69;97008.59;5030834;28;20202;-64
2021/06/12 05:47:30;;;;;;;5.07;4.68;;;;;;;22.57;60.39;97003.28;5031637;28;20210;-65
2021/06/12 05:49:55;;;;;;;5.88;4.22;;;;;;;22.72;59.96;97000.31;5030840;28;20640;-65
2021/06/12 05:52:20;;;;;;;5.28;4.78;;;;;;;22.79;59.43;97004.16;5031575;28;20880;-68
2021/06/12 05:54:46;;;;;;;6.22;5.63;;;;;;;22.86;61.56;97002.94;5031770;28;20198;-68
2021/06/12 05:57:11;;;;;;;5.88;5.25;;;;;;;23.06;60.91;96995.31;5012912;28;20264;-69
2021/06/12 05:59:37;;;;;;;5.80;5.20;;;;;;;23.07;60.10;97001.44;5032011;28;20269;-69
2021/06/12 06:02:02;;;;;;;5.20;4.70;;;;;;;23.38;59.03;97005.00;5030454;28;20241;-69
2021/06/12 06:04:28;;;;;;;5.60;5.10;;;;;;;23.52;58.00;97007.63;5031784;28;20207;-69
2021/06/12 06:06:53;;;;;;;5.47;4.97;;;;;;;23.73;57.17;97005.28;5030232;28;20631;-65
2021/06/12 06:09:18;;;;;;;6.40;4.80;;;;;;;23.79;57.21;96996.84;5031056;28;20686;-66
2021/06/12 06:11:44;;;;;;;5.50;5.00;;;;;;;23.92;56.68;96997.81;5031455;28;20189;-67
2021/06/12 06:14:09;;;;;;;5.70;5.07;;;;;;;24.02;56.10;97001.03;5030511;28;20714;-68
2021/06/12 06:16:35;;;;;;;6.20;4.57;;;;;;;24.26;55.55;96991.88;5031233;28;20198;-66
2021/06/12 06:19:00;;;;;;;5.53;4.50;;;;;;;24.43;55.63;96989.25;5030641;28;20316;-67
2021/06/12 06:21:26;;;;;;;6.20;4.60;;;;;;;24.83;54.56;97001.53;5030745;28;20632;-66
2021/06/12 06:23:51;;;;;;;4.75;4.35;;;;;;;24.80;54.27;97002.13;5030893;28;20185;-64
2021/06/12 06:26:17;;;;;;;4.82;4.45;;;;;;;24.94;54.10;97007.41;5013090;28;20191;-67
2021/06/12 06:28:42;;;;;;;6.63;4.68;;;;;;;24.87;54.37;97004.34;5031721;28;20262;-67
2021/06/12 06:31:07;;;;;;;4.95;4.55;;;;;;;24.71;54.61;97001.34;5030129;28;20199;-66
2021/06/12 06:33:33;;;;;;;5.00;4.60;;;;;;;24.77;54.69;97004.66;5031008;28;20238;-66
2021/06/12 06:35:59;;;;;;;6.57;4.38;;;;;;;24.97;54.22;96997.94;5029974;28;20191;-65
2021/06/12 06:38:24;;;;;;;5.47;4.00;;;;;;;25.26;53.61;97000.81;5031355;28;20217;-67
2021/06/12 06:40:50;;;;;;;4.95;4.55;;;;;;;25.48;52.37;97002.53;5035155;28;20187;-69
2021/06/12 06:43:16;;;;;;;5.35;4.85;;;;;;;25.53;52.45;97005.06;5016532;28;20214;-67
2021/06/12 06:45:42;;;;;;;5.30;4.80;;;;;;;25.55;52.47;97000.97;5035328;28;20182;-67
2021/06/12 06:48:09;;;;;;;5.00;4.60;;;;;;;25.61;52.43;97006.97;5034461;28;20193;-67
2021/06/12 06:50:35;;;;;;;6.22;4.78;;;;;;;25.66;52.66;97015.66;5035034;28;20201;-68
2021/06/12 06:53:00;;;;;;;4.68;4.28;;;;;;;25.63;52.80;97007.47;5033848;28;20265;-68
2021/06/12 06:55:27;;;;;;;5.20;4.80;;;;;;;25.85;52.23;97019.91;5035095;28;20187;-69
2021/06/12 06:57:53;;;;;;;5.57;4.45;;;;;;;26.13;51.45;97012.25;5034379;28;20614;-68
2021/06/12 07:00:19;;;;;;;4.68;4.07;;;;;;;26.15;51.42;97016.19;5034501;28;20190;-67
2021/06/12 07:02:44;;;;;;;5.38;4.85;;;;;;;26.42;51.29;97015.00;5017022;28;20654;-69
2021/06/12 07:05:10;;;;;;;4.60;4.20;;;;;;;26.55;50.62;97015.91;5033790;28;20179;-69
2021/06/12 07:07:36;;;;;;;5.00;4.57;;;;;;;26.70;50.11;97016.13;5016172;28;20524;-69
2021/06/12 07:10:01;;;;;;;6.50;4.85;;;;;;;26.80;49.24;97006.94;5033794;28;20190;-70
2021/06/12 07:12:27;;;;;;;4.55;4.15;;;;;;;26.57;49.92;97016.38;5034295;28;20643;-70
2021/06/12 07:14:52;;;;;;;4.72;4.32;;;;;;;26.38;49.88;97014.09;5034041;28;20183;-69
2021/06/12 07:17:18;;;;;;;4.65;4.25;;;;;;;26.30;50.51;97010.34;5016216;28;20198;-71
2021/06/12 07:19:43;;;;;;;4.72;4.28;;;;;;;26.48;50.96;97011.03;5033174;28;20202;-69
2021/06/12 07:22:09;;;;;;;7.15;4.07;;;;;;;26.81;49.94;97013.88;5033459;28;20187;-70
2021/06/12 07:24:35;;;;;;;4.30;3.90;;;;;;;26.98;49.80;97007.63;5033826;28;20186;-70
2021/06/12 07:27:01;;;;;;;4.57;4.18;;;;;;;27.05;49.68;97013.28;5015118;28;20198;-71
2021/06/12 07:29:26;;;;;;;4.00;3.70;;;;;;;27.28;49.63;97012.63;5016336;28;20183;-71
2021/06/12 07:31:52;;;;;;;4.45;4.07;;;;;;;27.23;49.76;97015.53;5031728;28;20230;-69
2021/06/12 07:34:18;;;;;;;5.53;4.60;;;;;;;27.38;50.18;97016.84;5033802;28;20222;-69
2021/06/12 07:36:43;;;;;;;4.65;4.25;;;;;;;27.62;49.08;97011.59;5033152;28;20651;-71
2021/06/12 07:39:10;;;;;;;5.93;4.00;;;;;;;27.71;48.84;97022.28;5033575;28;20191;-69
2021/06/12 07:41:37;;;;;;;4.00;3.70;;;;;;;27.83;48.17;97024.22;5033960;28;20658;-68
2021/06/12 07:44:04;;;;;;;4.80;3.90;;;;;;;27.72;48.05;97013.09;5031992;28;20213;-70
2021/06/12 07:46:30;;;;;;;5.88;3.88;;;;;;;27.64;48.02;97014.72;5033380;28;20212;-70
2021/06/12 07:48:55;;;;;;;4.07;3.65;;;;;;;27.75;48.08;97019.72;5033012;28;20190;-69
2021/06/12 07:51:21;;;;;;;3.97;3.47;;;;;;;28.03;47.64;97013.38;5031382;28;20607;-70
2021/06/12 07:53:46;;;;;;;4.35;3.70;;;;;;;28.34;47.09;97012.13;5032899;28;20544;-66
2021/06/12 07:56:12;;;;;;;4.00;3.70;;;;;;;28.53;46.72;97018.53;5032713;28;20194;-66
2021/06/12 07:58:37;;;;;;;4.28;3.35;;;;;;;28.87;45.10;97016.53;5033166;28;20277;-66
2021/06/12 08:01:03;;;;;;;5.03;3.22;;;;;;;28.93;44.92;97018.69;5033144;28;20253;-66
2021/06/12 08:03:28;;;;;;;3.88;3.50;;;;;;;28.90;45.18;97011.28;5033470;28;20197;-66
2021/06/12 08:05:55;;;;;;;4.90;3.05;;;;;;;28.87;44.40;97013.84;5033747;28;20652;-66
2021/06/12 08:08:20;;;;;;;3.40;3.10;;;;;;;28.77;44.76;97007.00;5015583;28;20277;-68
2021/06/12 08:10:46;;;;;;;3.40;3.10;;;;;;;28.58;45.33;97001.38;5033125;28;20258;-65
2021/06/12 08:13:11;;;;;;;3.35;3.13;;;;;;;28.83;45.67;97002.16;5032655;28;20261;-66
2021/06/12 08:15:38;;;;;;;3.38;3.17;;;;;;;29.10;45.18;97001.44;5014931;28;20186;-66
2021/06/12 08:18:04;;;;;;;3.33;3.10;;;;;;;28.92;44.31;97005.53;5032545;28;20199;-66
2021/06/12 08:20:30;;;;;;;2.97;2.78;;;;;;;28.93;44.87;97015.19;5015327;28;20266;-67
2021/06/12 08:22:55;;;;;;;3.80;3.50;;;;;;;28.26;47.37;97005.72;5033127;28;20209;-66
2021/06/12 08:25:21;;;;;;;4.30;3.70;;;;;;;28.06;47.88;97010.03;5032781;28;20244;-66
2021/06/12 08:27:46;;;;;;;4.03;3.47;;;;;;;27.81;48.61;97010.31;5033087;28;20190;-65
2021/06/12 08:30:13;;;;;;;3.30;3.00;;;;;;;27.38;50.06;97011.44;5032633;28;20218;-66
2021/06/12 08:32:39;;;;;;;2.88;2.65;;;;;;;28.17;44.60;97015.03;5015445;28;20195;-66
2021/06/12 08:35:05;;;;;;;2.65;2.45;;;;;;;28.08;43.63;97005.13;5032032;28;20222;-65
2021/06/12 08:37:31;;;;;;;2.70;2.50;;;;;;;28.26;43.96;96999.53;5031775;28;20206;-65
2021/06/12 08:39:56;;;;;;;3.45;3.15;;;;;;;27.70;47.50;97009.91;5031792;28;20202;-65
2021/06/12 08:42:22;;;;;;;5.13;3.47;;;;;;;27.22;49.76;97015.84;5032019;28;20664;-65
2021/06/12 08:44:48;;;;;;;4.03;3.63;;;;;;;27.03;49.28;97013.59;5032983;28;20647;-66
2021/06/12 08:47:14;;;;;;;3.95;3.55;;;;;;;26.95;49.88;97022.53;5031870;28;20194;-65
2021/06/12 08:49:40;;;;;;;4.55;4.15;;;;;;;26.83;50.84;97015.13;5032819;28;20595;-66
2021/06/12 08:52:06;;;;;;;4.55;4.15;;;;;;;26.23;52.16;97028.06;5031462;28;20190;-66
2021/06/12 08:54:33;;;;;;;4.43;4.00;;;;;;;26.08;53.53;97027.44;5032028;28;20318;-65
2021/06/12 08:56:58;;;;;;;4.35;3.95;;;;;;;26.12;52.13;97014.16;5031623;28;20253;-67
2021/06/12 08:59:25;;;;;;;4.50;4.10;;;;;;;26.01;52.73;97008.34;5031914;28;20264;-65
2021/06/12 09:01:50;;;;;;;4.43;4.03;;;;;;;26.16;53.31;97015.09;5032024;28;20193;-65
2021/06/12 09:04:30;;;;;;;4.15;3.85;;;;;;;26.26;52.54;97014.75;5031657;28;20187;-65
2021/06/12 09:07:32;;;;;;;5.47;4.15;;;;;;;25.81;53.67;97024.31;5032100;28;20269;-65
2021/06/12 09:09:58;;;;;;;4.90;4.38;;;;;;;25.71;54.66;97020.06;5031929;28;20710;-65
2021/06/12 09:12:50;;;;;;;4.93;4.53;;;;;;;25.98;54.84;97018.91;5032035;28;20191;-65
2021/06/12 09:15:17;;;;;;;4.15;3.85;;;;;;;25.79;55.70;97019.28;5027337;28;20190;-66
2021/06/12 09:17:45;;;;;;;4.20;3.80;;;;;;;26.23;54.76;97020.78;5032151;28;20359;-65
2021/06/12 09:20:14;;;;;;;3.80;3.40;;;;;;;25.42;55.04;97026.06;5031326;28;20565;-65
2021/06/12 09:22:39;;;;;;;3.25;3.05;;;;;;;25.72;54.89;97024.34;5032291;28;20269;-65
2021/06/12 09:25:06;;;;;;;3.50;3.28;;;;;;;25.78;54.56;97017.72;5030865;28;20293;-65
2021/06/12 09:27:31;;;;;;;3.55;3.25;;;;;;;26.25;54.20;97026.63;5031824;28;20186;-65
2021/06/12 09:30:00;;;;;;;3.95;3.38;;;;;;;26.36;54.10;97019.78;5014312;28;20663;-66
2021/06/12 09:32:28;;;;;;;4.22;3.30;;;;;;;26.46;54.67;97026.72;5030756;28;20659;-66
2021/06/12 09:35:06;;;;;;;11.85;2.83;;;;;;;26.86;52.86;97014.47;5031861;28;20272;-66
2021/06/12 09:37:32;;;;;;;2.63;2.42;;;;;;;26.80;53.00;97021.19;5031159;28;20630;-65
2021/06/12 09:40:11;;;;;;;2.45;2.25;;;;;;;26.57;52.49;97022.56;5031706;28;20277;-65
2021/06/12 09:42:40;;;;;;;7.43;2.05;;;;;;;26.19;51.47;97022.53;5031099;28;20188;-64
2021/06/12 09:45:08;;;;;;;2.75;1.80;;;;;;;26.26;51.34;97022.03;5030684;28;20210;-65
2021/06/12 09:47:34;;;;;;;1.63;1.52;;;;;;;26.33;50.83;97028.50;5031593;28;20194;-66
2021/06/12 09:50:01;;;;;;;1.60;1.50;;;;;;;26.47;50.28;97025.59;5031140;28;20175;-65
2021/06/12 09:52:26;;;;;;;1.50;1.40;;;;;;;26.52;48.81;97017.34;5031265;28;20270;-65
2021/06/12 09:54:52;;;;;;;1.50;1.40;;;;;;;26.05;49.44;97025.38;5031528;28;20277;-65
2021/06/12 09:57:22;;;;;;;1.80;1.70;;;;;;;26.20;49.50;97020.59;5030723;28;20265;-65
2021/06/12 09:59:52;;;;;;;2.78;2.03;;;;;;;26.27;49.52;97023.63;5031509;28;20615;-65
2021/06/12 10:02:38;;;;;;;1.67;1.58;;;;;;;26.68;49.02;97012.22;5030608;28;20188;-63
2021/06/12 10:05:06;;;;;;;2.97;1.70;;;;;;;26.32;49.06;97008.09;5030168;28;20182;-64
2021/06/12 10:07:31;;;;;;;1.95;1.75;;;;;;;26.24;49.12;97008.16;5031306;28;20213;-63
2021/06/12 10:10:02;;;;;;;1.42;1.33;;;;;;;26.23;49.38;97011.94;5031253;28;20186;-64
2021/06/12 10:12:28;;;;;;;1.50;1.40;;;;;;;26.37;48.97;97005.22;5030420;28;20181;-64
2021/06/12 10:14:56;;;;;;;2.15;2.05;;;;;;;26.44;51.21;97008.22;5030572;28;20186;-67
2021/06/12 10:17:23;;;;;;;1.70;1.60;;;;;;;26.43;49.65;97005.84;5030171;28;20295;-67
2021/06/12 10:19:51;;;;;;;2.40;2.20;;;;;;;26.37;49.98;97009.81;5030899;28;20621;-67
2021/06/12 10:22:17;;;;;;;2.13;1.98;;;;;;;26.27;50.25;97000.22;5011937;28;20187;-67
2021/06/12 10:24:42;;;;;;;2.47;1.55;;;;;;;26.63;49.40;97002.44;5029269;28;20205;-67
2021/06/12 10:27:08;;;;;;;1.73;1.63;;;;;;;26.90;49.93;96998.50;5035965;28;20193;-66
2021/06/12 10:29:34;;;;;;;1.73;1.63;;;;;;;27.15;47.96;97002.13;5031457;28;20186;-66
2021/06/12 10:32:01;;;;;;;1.70;1.60;;;;;;;27.21;48.00;97009.69;5012652;28;20190;-67
2021/06/12 10:34:28;;;;;;;1.40;1.40;;;;;;;27.26;47.64;97006.00;5029322;28;20214;-67
2021/06/12 10:37:03;;;;;;;2.20;1.90;;;;;;;26.94;46.95;97006.72;5030298;28;20698;-67
2021/06/12 10:39:34;;;;;;;1.98;1.75;;;;;;;26.77;48.06;97004.88;5029976;28;20179;-67
2021/06/12 10:42:19;;;;;;;15.75;14.13;;;;;;;27.08;48.95;97002.66;5029894;28;20590;-64
2021/06/12 10:44:52;;;;;;;34.95;27.33;;;;;;;27.31;46.28;97003.88;5029064;28;20197;-63
2021/06/12 10:47:38;;;;;;;185.32;129.55;;;;;;;27.17;46.21;97000.69;5011079;28;20261;-63
2021/06/12 10:50:28;;;;;;;23.65;21.33;;;;;;;27.60;45.21;96992.28;5007870;28;20281;-64
2021/06/12 10:53:12;;;;;;;6.72;6.03;;;;;;;27.89;45.21;96995.97;5031380;28;20175;-63
2021/06/12 10:55:50;;;;;;;3.67;3.33;;;;;;;27.90;44.74;96987.56;5030654;28;20175;-64
2021/06/12 10:58:33;;;;;;;1.90;1.80;;;;;;;28.23;42.94;96984.03;5030091;28;20304;-64
2021/06/12 11:01:15;;;;;;;1.63;1.52;;;;;;;28.28;42.23;96984.59;5031399;28;20185;-63
2021/06/12 11:03:40;;;;;;;1.92;1.55;;;;;;;28.32;42.76;96985.50;5030542;28;20714;-64
2021/06/12 11:06:34;;;;;;;1.40;1.30;;;;;;;28.15;41.70;96976.81;5030245;28;20183;-65
2021/06/12 11:09:18;;;;;;;1.25;1.20;;;;;;;28.20;39.97;96974.69;5031220;28;20277;-63
2021/06/12 11:11:51;;;;;;;1.35;1.35;;;;;;;28.12;40.20;96970.19;5031352;28;20648;-62
2021/06/12 11:14:19;;;;;;;1.83;1.40;;;;;;;27.80;40.74;96976.41;5029494;28;20509;-63
2021/06/12 11:19:56;;;;;;;1.58;1.48;;;;;;;27.45;41.66;96974.00;5026874;28;20191;-64
2021/06/12 11:22:22;;;;;;;1.70;1.60;;;;;;;27.66;41.33;96964.00;5015178;28;20213;-63
2021/06/12 11:24:47;;;;;;;1.70;1.60;;;;;;;27.54;41.22;96960.50;5036768;28;20186;-65
2021/06/12 11:27:27;;;;;;;1.83;1.75;;;;;;;27.77;41.95;96964.38;5033830;28;20654;-63
2021/06/12 11:30:11;;;;;;;1.67;1.58;;;;;;;27.55;42.46;96964.75;5033620;28;20643;-64
2021/06/12 11:32:37;;;;;;;1.35;1.35;;;;;;;27.53;41.69;96961.63;5034116;28;20178;-63
2021/06/12 11:35:05;;;;;;;1.60;1.50;;;;;;;27.62;40.95;96970.41;5034242;28;20272;-67
2021/06/12 11:37:30;;;;;;;2.08;1.80;;;;;;;27.97;41.88;96968.94;5032225;28;20205;-63
2021/06/12 11:40:02;;;;;;;1.35;1.35;;;;;;;28.34;42.91;96963.59;5033563;28;20179;-64